Time;durP1;ratioP1;P1;durP2;ratioP2;P2;SDS_P1;SDS_P2;PMS_P1;PMS_P2;Temp;Humidity;BMP_temperature;BMP_pressure;BME280_temperature;BME280_humidity;BME280_pressure;Samples;Min_cycle;Max_cycle;Signal;HPM_P1;HPM_P2
2022/10/11 00:00:33;;;;;;;13.65;9.32;;;16.70;80.00;;;;;;5075116;28;20036;-70
2022/10/11 00:02:59;;;;;;;15.35;11.15;;;16.70;80.10;;;;;;5075146;28;20112;-70
2022/10/11 00:05:25;;;;;;;16.20;10.57;;;16.60;80.50;;;;;;5074658;28;20457;-70
2022/10/11 00:07:51;;;;;;;11.70;10.00;;;16.60;80.90;;;;;;5075422;28;20380;-70
2022/10/11 00:10:17;;;;;;;13.43;10.63;;;16.60;80.90;;;;;;5074976;28;20037;-71
2022/10/11 00:12:43;;;;;;;13.98;10.88;;;16.50;81.20;;;;;;5074999;28;20064;-70
2022/10/11 00:15:13;;;;;;;14.50;10.88;;;16.50;81.70;;;;;;5074623;28;20531;-70
2022/10/11 00:17:38;;;;;;;15.05;9.85;;;16.50;81.50;;;;;;5074762;28;20082;-89
2022/10/11 00:20:04;;;;;;;13.52;10.10;;;16.50;81.50;;;;;;5074302;28;20041;-71
2022/10/11 00:22:30;;;;;;;13.27;10.73;;;16.50;81.40;;;;;;5074572;28;20029;-71
2022/10/11 00:24:57;;;;;;;19.92;10.38;;;16.50;81.60;;;;;;5074366;28;20055;-70
2022/10/11 00:27:23;;;;;;;15.52;10.07;;;16.50;81.70;;;;;;5074518;28;20029;-70
2022/10/11 00:29:49;;;;;;;14.27;11.60;;;16.50;81.70;;;;;;5074583;28;20033;-71
2022/10/11 00:32:14;;;;;;;14.82;10.70;;;16.50;81.80;;;;;;5074695;28;20032;-71
2022/10/11 00:34:40;;;;;;;12.98;10.23;;;16.40;81.90;;;;;;5074855;28;20040;-71
2022/10/11 00:37:06;;;;;;;15.20;10.48;;;16.40;81.80;;;;;;5074296;28;20037;-70
2022/10/11 00:39:31;;;;;;;17.80;11.13;;;16.40;82.00;;;;;;5074265;28;20464;-71
2022/10/11 00:41:57;;;;;;;10.73;9.57;;;16.40;82.00;;;;;;5074585;28;20068;-70
2022/10/11 00:44:26;;;;;;;22.45;11.23;;;16.30;82.10;;;;;;5074116;28;20051;-70
2022/10/11 00:46:59;;;;;;;14.00;9.80;;;16.30;82.50;;;;;;5073997;28;20036;-71
2022/10/11 00:49:48;;;;;;;18.40;10.32;;;16.30;82.50;;;;;;5074071;28;20032;-70
2022/10/11 00:52:33;;;;;;;15.25;11.00;;;16.30;82.40;;;;;;5074145;28;20565;-70
2022/10/11 00:55:10;;;;;;;16.90;10.63;;;16.30;82.80;;;;;;5074151;28;20059;-70
2022/10/11 00:57:39;;;;;;;18.95;9.48;;;16.30;82.50;;;;;;5073189;28;20033;-71
2022/10/11 01:00:08;;;;;;;13.30;9.82;;;16.20;82.20;;;;;;5070963;28;20094;-71
2022/10/11 01:02:35;;;;;;;14.93;10.25;;;16.20;82.20;;;;;;5070869;28;20132;-70
2022/10/11 01:05:01;;;;;;;12.02;9.88;;;16.30;82.50;;;;;;5072250;28;20048;-70
2022/10/11 01:07:30;;;;;;;18.38;10.55;;;16.20;82.50;;;;;;5073499;28;20056;-70
2022/10/11 01:09:56;;;;;;;15.10;10.55;;;16.20;82.40;;;;;;5073879;28;20060;-70
2022/10/11 01:12:25;;;;;;;14.35;10.18;;;16.20;82.30;;;;;;5073559;28;20120;-71
2022/10/11 01:15:29;;;;;;;15.45;10.13;;;16.20;82.40;;;;;;5073172;28;20032;-71
2022/10/11 01:18:19;;;;;;;18.48;9.90;;;16.20;82.40;;;;;;5060225;28;20044;-70
2022/10/11 01:21:05;;;;;;;16.88;11.30;;;16.20;82.50;;;;;;5073015;28;20037;-71
2022/10/11 01:24:08;;;;;;;13.20;9.45;;;16.10;82.50;;;;;;5073214;28;20541;-70
2022/10/11 01:26:46;;;;;;;14.73;10.25;;;16.10;82.60;;;;;;5073501;28;20119;-70
2022/10/11 01:29:35;;;;;;;14.57;10.45;;;16.10;82.60;;;;;;5073222;28;20059;-70
2022/10/11 01:32:06;;;;;;;15.38;10.13;;;16.10;83.30;;;;;;5064477;28;20063;-70
2022/10/11 01:34:40;;;;;;;11.65;9.85;;;16.10;83.20;;;;;;5073461;28;20110;-70
2022/10/11 01:37:09;;;;;;;18.20;10.13;;;16.10;83.10;;;;;;5072860;28;20029;-70
2022/10/11 01:39:42;;;;;;;12.88;10.32;;;16.00;82.80;;;;;;5073176;28;20531;-71
2022/10/11 01:42:11;;;;;;;13.57;9.98;;;16.00;82.60;;;;;;5073250;28;20094;-70
2022/10/11 01:44:38;;;;;;;16.70;11.02;;;16.00;82.60;;;;;;5073314;28;20401;-70
2022/10/11 01:47:04;;;;;;;14.18;10.98;;;16.00;82.40;;;;;;5073211;28;20063;-69
2022/10/11 01:49:30;;;;;;;20.20;11.27;;;16.10;82.40;;;;;;5073252;28;20544;-70
2022/10/11 01:51:59;;;;;;;16.52;11.07;;;16.10;82.40;;;;;;5073113;28;20041;-70
2022/10/11 01:55:10;;;;;;;15.70;10.45;;;16.10;82.30;;;;;;5073207;28;20033;-71
2022/10/11 01:57:59;;;;;;;19.88;10.65;;;16.10;82.20;;;;;;5069839;28;20366;-91
2022/10/11 02:00:31;;;;;;;14.07;10.60;;;16.10;81.70;;;;;;5072961;28;20492;-70
2022/10/11 02:03:18;;;;;;;14.02;10.00;;;16.00;81.50;;;;;;5072998;28;20036;-70
2022/10/11 02:05:46;;;;;;;13.30;9.90;;;16.00;81.60;;;;;;5072823;28;20125;-70
2022/10/11 02:08:31;;;;;;;12.63;9.70;;;16.00;82.50;;;;;;5073063;28;20029;-70
2022/10/11 02:11:08;;;;;;;19.77;9.95;;;15.90;81.80;;;;;;5072754;28;20036;-70
2022/10/11 02:13:42;;;;;;;13.52;10.55;;;15.90;81.90;;;;;;5072513;28;20029;-70
2022/10/11 02:16:13;;;;;;;13.63;10.35;;;15.90;82.00;;;;;;5072772;28;20079;-70
2022/10/11 02:18:45;;;;;;;18.27;10.73;;;15.90;82.20;;;;;;5073141;28;20041;-70
2022/10/11 02:21:15;;;;;;;15.95;10.80;;;15.80;82.20;;;;;;5072783;28;20044;-70
2022/10/11 02:23:48;;;;;;;14.60;10.65;;;15.70;82.50;;;;;;5072438;28;20021;-70
2022/10/11 02:26:14;;;;;;;18.05;11.48;;;15.70;82.70;;;;;;5072808;28;20056;-70
2022/10/11 02:28:42;;;;;;;18.15;11.55;;;15.70;82.90;;;;;;5072806;28;20063;-71
2022/10/11 02:31:10;;;;;;;12.23;10.55;;;15.60;83.10;;;;;;5072707;28;20025;-70
2022/10/11 02:33:43;;;;;;;14.10;10.45;;;15.60;83.10;;;;;;5072753;28;20036;-70
2022/10/11 02:36:41;;;;;;;15.70;11.25;;;15.60;83.30;;;;;;5073342;28;20478;-70
2022/10/11 02:39:15;;;;;;;17.55;11.20;;;15.60;83.50;;;;;;5072434;28;20036;-70
2022/10/11 02:41:42;;;;;;;19.95;11.32;;;15.60;84.20;;;;;;5072737;28;20036;-69
2022/10/11 02:44:16;;;;;;;16.70;11.18;;;15.60;83.40;;;;;;5075607;28;20036;-70
2022/10/11 02:46:44;;;;;;;12.02;10.63;;;15.60;83.10;;;;;;5076545;28;20052;-70
2022/10/11 02:49:11;;;;;;;17.85;11.23;;;15.60;83.50;;;;;;5076266;28;20111;-70
2022/10/11 02:51:37;;;;;;;15.30;10.93;;;15.60;83.30;;;;;;5076273;28;20041;-70
2022/10/11 02:54:03;;;;;;;18.27;10.90;;;15.60;83.00;;;;;;5076325;28;20043;-70
2022/10/11 02:56:29;;;;;;;21.65;11.05;;;15.50;82.80;;;;;;5076603;28;20033;-70
2022/10/11 02:58:54;;;;;;;16.65;10.85;;;15.50;83.10;;;;;;5076309;28;20504;-71
2022/10/11 03:01:20;;;;;;;16.98;11.38;;;15.40;83.20;;;;;;5076378;28;20377;-70
2022/10/11 03:03:46;;;;;;;13.25;11.30;;;15.40;83.40;;;;;;5076088;28;20118;-71
2022/10/11 03:06:12;;;;;;;18.52;11.15;;;15.40;83.60;;;;;;5075837;28;20401;-70
2022/10/11 03:08:37;;;;;;;17.00;11.70;;;15.40;83.50;;;;;;5075949;28;20032;-70
2022/10/11 03:11:03;;;;;;;16.98;11.32;;;15.40;83.60;;;;;;5075995;28;20032;-70
2022/10/11 03:13:28;;;;;;;19.65;11.13;;;15.40;84.20;;;;;;5075956;28;20082;-70
2022/10/11 03:15:54;;;;;;;16.33;11.45;;;15.40;83.70;;;;;;5075941;28;20020;-70
2022/10/11 03:18:20;;;;;;;19.13;11.88;;;15.40;83.80;;;;;;5076008;28;20038;-70
2022/10/11 03:20:46;;;;;;;17.27;11.80;;;15.40;83.70;;;;;;5075788;28;20032;-71
2022/10/11 03:23:12;;;;;;;15.18;11.85;;;15.30;83.80;;;;;;5075848;28;20039;-70
2022/10/11 03:25:38;;;;;;;18.83;13.35;;;15.30;84.10;;;;;;5075857;28;20083;-70
2022/10/11 03:28:04;;;;;;;18.80;13.07;;;15.30;84.30;;;;;;5075707;28;20064;-71
2022/10/11 03:30:30;;;;;;;21.40;13.07;;;15.30;84.50;;;;;;5075487;28;20037;-71
2022/10/11 03:32:56;;;;;;;18.75;12.82;;;15.30;84.50;;;;;;5075396;28;20078;-71
2022/10/11 03:35:21;;;;;;;16.83;12.90;;;15.20;84.60;;;;;;5075457;28;20040;-70
2022/10/11 03:37:47;;;;;;;14.68;12.80;;;15.30;84.80;;;;;;5075388;28;20025;-70
2022/10/11 03:40:13;;;;;;;19.58;11.70;;;15.20;84.90;;;;;;5075456;28;20044;-70
2022/10/11 03:42:39;;;;;;;14.00;12.45;;;15.30;85.00;;;;;;5075323;28;20028;-70
2022/10/11 03:45:07;;;;;;;21.65;13.65;;;15.30;85.20;;;;;;5075207;28;20050;-70
2022/10/11 03:47:37;;;;;;;15.98;12.43;;;15.20;85.40;;;;;;5075307;28;20041;-70
2022/10/11 03:50:08;;;;;;;14.07;12.38;;;15.20;85.70;;;;;;5075632;28;20032;-70
2022/10/11 03:52:34;;;;;;;16.20;13.60;;;15.20;85.50;;;;;;5075286;28;20493;-70
2022/10/11 03:55:00;;;;;;;16.95;13.07;;;15.20;85.30;;;;;;5074562;28;20024;-70
2022/10/11 03:57:25;;;;;;;15.52;12.45;;;15.20;85.60;;;;;;5075180;28;20048;-71
2022/10/11 03:59:51;;;;;;;20.33;12.90;;;15.20;85.80;;;;;;5075099;28;20029;-70
2022/10/11 04:02:17;;;;;;;20.52;12.88;;;15.30;85.90;;;;;;5075090;28;20508;-71
2022/10/11 04:04:42;;;;;;;19.55;14.15;;;15.30;86.20;;;;;;5074946;28;20037;-70
2022/10/11 04:07:08;;;;;;;19.23;14.07;;;15.30;86.10;;;;;;5071388;28;20041;-70
2022/10/11 04:09:34;;;;;;;21.70;14.35;;;15.30;86.10;;;;;;5055199;28;20033;-70
2022/10/11 04:12:00;;;;;;;19.95;13.02;;;15.30;86.00;;;;;;5054941;28;20033;-70
2022/10/11 04:14:26;;;;;;;17.98;13.20;;;15.30;85.70;;;;;;5054994;28;20041;-70
2022/10/11 04:16:52;;;;;;;15.52;11.85;;;15.30;86.30;;;;;;5054737;28;20112;-70
2022/10/11 04:19:17;;;;;;;18.02;12.10;;;15.20;85.70;;;;;;5055139;28;20037;-72
2022/10/11 04:21:43;;;;;;;19.63;11.50;;;15.30;85.70;;;;;;5054745;28;20397;-71
2022/10/11 04:24:11;;;;;;;23.27;11.80;;;15.30;85.80;;;;;;5054431;28;20542;-71
2022/10/11 04:26:37;;;;;;;12.85;11.50;;;15.30;85.90;;;;;;5060275;28;20072;-81
2022/10/11 04:29:03;;;;;;;17.17;12.02;;;15.30;86.00;;;;;;5074299;28;20114;-70
2022/10/11 04:31:29;;;;;;;16.40;11.13;;;15.40;86.00;;;;;;5074318;28;20115;-70
2022/10/11 04:33:55;;;;;;;21.35;11.07;;;15.30;85.80;;;;;;5074388;28;20056;-70
2022/10/11 04:36:21;;;;;;;11.73;9.75;;;15.40;85.60;;;;;;5074466;28;20036;-70
2022/10/11 04:38:47;;;;;;;17.80;9.98;;;15.40;85.60;;;;;;5074515;28;20052;-71
2022/10/11 04:41:13;;;;;;;13.43;9.65;;;15.40;85.60;;;;;;5074763;28;20071;-71
2022/10/11 04:43:39;;;;;;;14.18;10.07;;;15.40;85.60;;;;;;5074257;28;20492;-71
2022/10/11 04:46:06;;;;;;;19.02;10.60;;;15.40;85.60;;;;;;5073934;28;20085;-70
2022/10/11 04:48:32;;;;;;;11.88;9.07;;;15.50;85.50;;;;;;5074234;28;20032;-70
2022/10/11 04:50:57;;;;;;;16.63;9.48;;;15.50;85.40;;;;;;5056336;28;20048;-70
2022/10/11 04:53:23;;;;;;;17.50;10.35;;;15.40;85.40;;;;;;5074370;28;20033;-70
2022/10/11 04:56:04;;;;;;;13.82;10.05;;;15.50;85.30;;;;;;5074162;28;20045;-70
2022/10/11 04:58:32;;;;;;;14.80;10.23;;;15.50;84.90;;;;;;5073833;28;20051;-70
2022/10/11 05:00:58;;;;;;;22.35;11.82;;;15.50;84.90;;;;;;5073802;28;20546;-71
2022/10/11 05:03:24;;;;;;;15.70;9.80;;;15.50;84.70;;;;;;5073926;28;20037;-70
2022/10/11 05:05:50;;;;;;;16.73;9.65;;;15.50;84.60;;;;;;5073758;28;20127;-70
2022/10/11 05:08:16;;;;;;;17.75;9.93;;;15.60;84.40;;;;;;5073506;28;20108;-71
2022/10/11 05:10:41;;;;;;;15.02;10.35;;;15.50;84.20;;;;;;5073946;28;20067;-70
2022/10/11 05:13:07;;;;;;;14.68;10.07;;;15.60;84.80;;;;;;5074103;28;20401;-91
2022/10/11 05:15:33;;;;;;;16.35;9.73;;;15.60;83.90;;;;;;5074274;28;20037;-86
2022/10/11 05:17:59;;;;;;;13.68;10.40;;;15.60;83.80;;;;;;5073722;28;20021;-71
2022/10/11 05:20:25;;;;;;;17.90;11.35;;;15.60;83.80;;;;;;5074574;28;20044;-81
2022/10/11 05:22:50;;;;;;;15.55;9.05;;;15.60;83.90;;;;;;5073768;28;20118;-92
2022/10/11 05:25:16;;;;;;;19.17;9.80;;;15.60;83.90;;;;;;5075073;28;20170;-75
2022/10/11 05:27:42;;;;;;;15.07;9.55;;;15.60;83.90;;;;;;5075551;28;20029;-87
2022/10/11 05:30:08;;;;;;;13.40;9.43;;;15.60;83.80;;;;;;5074633;28;20033;-70
2022/10/11 05:32:34;;;;;;;13.23;10.38;;;15.60;83.80;;;;;;5073411;28;20021;-70
2022/10/11 05:34:59;;;;;;;19.23;10.38;;;15.60;83.80;;;;;;5073324;28;20033;-70
2022/10/11 05:37:25;;;;;;;13.77;10.05;;;15.60;83.90;;;;;;5073402;28;20062;-71
2022/10/11 05:39:51;;;;;;;19.17;9.45;;;15.60;84.00;;;;;;5073373;28;20045;-71
2022/10/11 05:42:16;;;;;;;13.32;9.32;;;15.60;85.00;;;;;;5073472;28;20500;-87
2022/10/11 05:44:42;;;;;;;21.23;10.57;;;15.60;84.70;;;;;;5073398;28;20052;-71
2022/10/11 05:47:07;;;;;;;14.35;10.07;;;15.50;84.90;;;;;;5073653;28;20069;-79
2022/10/11 05:49:33;;;;;;;17.20;10.55;;;15.60;85.00;;;;;;5073374;28;20032;-71
2022/10/11 05:51:59;;;;;;;19.90;11.63;;;15.50;84.90;;;;;;5073508;28;20059;-72
2022/10/11 05:54:28;;;;;;;22.17;11.93;;;15.50;84.90;;;;;;5073309;28;20477;-88
2022/10/11 05:56:54;;;;;;;21.92;10.73;;;15.50;85.40;;;;;;5073186;28;20024;-79
2022/10/11 05:59:20;;;;;;;19.80;12.05;;;15.40;85.40;;;;;;5073241;28;20163;-70
2022/10/11 06:01:45;;;;;;;28.00;11.98;;;15.40;85.60;;;;;;5073258;28;20119;-70
2022/10/11 06:04:11;;;;;;;25.73;11.35;;;15.40;85.70;;;;;;5072867;28;20041;-76
2022/10/11 06:06:37;;;;;;;25.52;11.48;;;15.40;86.00;;;;;;5072802;28;20497;-86
2022/10/11 06:09:03;;;;;;;30.73;11.93;;;15.40;86.20;;;;;;5072856;28;20051;-71
2022/10/11 06:11:28;;;;;;;25.27;11.70;;;15.40;86.40;;;;;;5072858;28;20040;-70
2022/10/11 06:13:56;;;;;;;30.58;13.32;;;15.40;86.50;;;;;;5073455;28;20446;-79
2022/10/11 06:16:23;;;;;;;31.85;13.35;;;15.30;86.20;;;;;;5073673;28;20107;-89
2022/10/11 06:18:52;;;;;;;26.38;12.38;;;15.40;86.70;;;;;;5072330;28;20032;-81
2022/10/11 06:21:18;;;;;;;32.40;12.98;;;15.40;86.70;;;;;;5073136;28;20033;-87
2022/10/11 06:23:49;;;;;;;29.27;12.48;;;15.40;86.70;;;;;;5073352;28;20036;-88
2022/10/11 06:26:15;;;;;;;18.98;11.65;;;15.40;86.90;;;;;;5073430;28;20044;-88
2022/10/11 06:28:41;;;;;;;28.25;12.20;;;15.40;86.90;;;;;;5073362;28;20086;-90
2022/10/11 06:31:06;;;;;;;21.48;11.90;;;15.50;87.50;;;;;;5073392;28;20058;-70
2022/10/11 06:33:32;;;;;;;21.52;11.88;;;15.50;87.40;;;;;;5072848;28;20033;-89
2022/10/11 06:36:01;;;;;;;17.60;11.05;;;15.50;87.60;;;;;;5072509;28;20041;-87
2022/10/11 06:38:26;;;;;;;19.45;11.27;;;15.60;87.40;;;;;;5072739;28;20036;-70
2022/10/11 06:40:53;;;;;;;24.75;11.45;;;15.60;87.30;;;;;;5072778;28;20056;-82
2022/10/11 06:43:19;;;;;;;18.35;11.88;;;15.70;87.20;;;;;;5072756;28;20064;-70
2022/10/11 06:45:45;;;;;;;26.15;10.98;;;15.70;87.00;;;;;;5073064;28;20044;-71
2022/10/11 06:48:10;;;;;;;13.90;9.93;;;15.80;86.90;;;;;;5072821;28;20040;-70
2022/10/11 06:50:37;;;;;;;16.95;10.80;;;15.80;86.40;;;;;;5073240;28;20041;-93
2022/10/11 06:53:05;;;;;;;14.73;10.45;;;15.90;85.90;;;;;;5072890;28;20033;-90
2022/10/11 06:55:31;;;;;;;14.65;9.25;;;15.90;85.40;;;;;;5072818;28;20111;-89
2022/10/11 06:57:56;;;;;;;15.10;10.27;;;16.00;85.20;;;;;;5072920;28;20041;-70
2022/10/11 07:00:22;;;;;;;18.35;11.35;;;16.00;85.10;;;;;;5072307;28;20035;-70
2022/10/11 07:02:48;;;;;;;17.55;10.75;;;16.00;85.70;;;;;;5072352;28;20098;-71
2022/10/11 07:05:15;;;;;;;20.38;10.63;;;16.00;86.00;;;;;;5072070;28;20062;-70
2022/10/11 07:07:41;;;;;;;18.55;10.48;;;16.00;86.30;;;;;;5072066;28;20063;-71
2022/10/11 07:10:07;;;;;;;13.30;9.15;;;16.00;86.20;;;;;;5071645;28;20108;-73
2022/10/11 07:12:33;;;;;;;15.30;9.50;;;16.00;86.10;;;;;;5072666;28;20033;-70
2022/10/11 07:14:59;;;;;;;24.45;12.55;;;16.00;86.30;;;;;;5072674;28;20029;-70
2022/10/11 07:17:25;;;;;;;18.67;11.30;;;16.00;86.40;;;;;;5072325;28;20033;-88
2022/10/11 07:19:50;;;;;;;21.45;11.38;;;16.00;86.70;;;;;;5072290;28;20036;-70
2022/10/11 07:22:16;;;;;;;19.75;11.55;;;16.00;86.80;;;;;;5072254;28;20401;-71
2022/10/11 07:24:42;;;;;;;14.68;9.70;;;16.10;86.70;;;;;;5072616;28;20045;-70
2022/10/11 07:27:08;;;;;;;18.85;10.68;;;16.10;86.30;;;;;;5072200;28;20040;-70
2022/10/11 07:29:33;;;;;;;16.95;10.35;;;16.10;86.20;;;;;;5072856;28;20086;-90
2022/10/11 07:31:59;;;;;;;19.63;10.88;;;16.20;85.90;;;;;;5077819;28;20043;-71
2022/10/11 07:34:25;;;;;;;19.15;11.73;;;16.30;85.80;;;;;;5081286;28;20107;-79
2022/10/11 07:36:50;;;;;;;21.40;11.77;;;16.30;85.70;;;;;;5081119;28;20020;-91
2022/10/11 07:39:16;;;;;;;19.45;11.48;;;16.40;86.10;;;;;;5080775;28;20059;-69
2022/10/11 07:41:42;;;;;;;13.85;10.30;;;16.40;86.10;;;;;;5075615;28;20440;-72
2022/10/11 07:44:07;;;;;;;23.55;10.73;;;16.50;86.30;;;;;;5077825;28;20041;-71
2022/10/11 07:46:33;;;;;;;17.67;11.02;;;16.50;86.00;;;;;;5078964;28;20040;-87
2022/10/11 07:48:59;;;;;;;20.27;11.30;;;16.60;86.00;;;;;;5079958;28;20373;-71
2022/10/11 07:51:25;;;;;;;16.27;10.50;;;16.70;85.80;;;;;;5079116;28;20120;-93
2022/10/11 07:53:54;;;;;;;21.67;10.77;;;16.70;85.60;;;;;;5079416;28;20389;-81
2022/10/11 07:56:23;;;;;;;18.70;11.30;;;16.80;85.70;;;;;;5075987;28;20033;-71
2022/10/11 07:58:51;;;;;;;26.73;11.63;;;16.80;85.20;;;;;;5084923;28;20041;-90
2022/10/11 08:01:17;;;;;;;20.75;10.52;;;16.90;85.10;;;;;;5085388;28;20032;-71
2022/10/11 08:03:42;;;;;;;20.63;10.73;;;17.00;84.90;;;;;;5084718;28;20427;-69
2022/10/11 08:06:10;;;;;;;21.30;9.65;;;17.00;84.40;;;;;;5083402;28;20099;-93
2022/10/11 08:08:36;;;;;;;15.93;9.00;;;17.10;84.20;;;;;;5079076;28;20037;-71
2022/10/11 08:11:03;;;;;;;12.90;8.45;;;17.10;84.00;;;;;;5081097;28;20127;-91
2022/10/11 08:13:28;;;;;;;13.80;8.60;;;17.20;83.50;;;;;;5078834;28;20040;-93
2022/10/11 08:15:54;;;;;;;15.25;8.35;;;17.20;83.10;;;;;;5076274;28;20036;-70
2022/10/11 08:18:20;;;;;;;15.57;7.88;;;17.30;82.50;;;;;;5076159;28;20036;-71
2022/10/11 08:20:46;;;;;;;9.20;7.60;;;17.40;82.40;;;;;;5075837;28;20397;-89
2022/10/11 08:23:12;;;;;;;13.90;7.88;;;17.40;81.70;;;;;;5075923;28;20086;-70
2022/10/11 08:25:40;;;;;;;12.95;7.32;;;17.50;80.80;;;;;;5076400;28;20068;-70
2022/10/11 08:28:06;;;;;;;15.13;7.57;;;17.60;81.20;;;;;;5074721;28;20086;-90
2022/10/11 08:30:32;;;;;;;16.55;7.38;;;17.70;80.90;;;;;;5074708;28;20039;-71
2022/10/11 08:32:58;;;;;;;11.68;7.15;;;17.80;80.70;;;;;;5074955;28;20103;-72
2022/10/11 08:35:24;;;;;;;13.50;7.50;;;17.90;80.30;;;;;;5074275;28;20060;-90
2022/10/11 08:37:50;;;;;;;15.05;7.22;;;17.90;78.90;;;;;;5076081;28;20056;-71
2022/10/11 08:40:19;;;;;;;8.85;7.30;;;18.00;79.00;;;;;;5075613;28;20378;-90
2022/10/11 08:42:54;;;;;;;13.02;7.07;;;18.10;79.30;;;;;;5074537;28;20052;-71
2022/10/11 08:45:30;;;;;;;12.98;6.50;;;18.20;78.60;;;;;;5074327;28;20472;-70
2022/10/11 08:48:05;;;;;;;9.05;6.78;;;18.30;77.90;;;;;;5074664;28;20473;-71
2022/10/11 08:50:31;;;;;;;20.15;7.05;;;18.40;77.60;;;;;;5056362;28;20032;-71
2022/10/11 08:53:05;;;;;;;9.35;7.07;;;18.40;77.50;;;;;;5074654;28;20086;-71
2022/10/11 08:55:39;;;;;;;9.82;6.13;;;18.50;77.20;;;;;;5074393;28;20024;-71
2022/10/11 08:58:04;;;;;;;11.05;6.07;;;18.60;76.10;;;;;;5073881;28;20029;-70
2022/10/11 09:00:34;;;;;;;7.30;6.25;;;18.60;76.00;;;;;;5073824;28;20033;-71
2022/10/11 09:03:24;;;;;;;12.63;6.82;;;18.70;75.20;;;;;;5073884;28;20037;-71
2022/10/11 09:06:19;;;;;;;10.77;6.30;;;18.80;74.50;;;;;;5073888;28;20048;-71
2022/10/11 09:08:59;;;;;;;9.95;6.43;;;18.90;75.20;;;;;;5065419;28;20388;-71
2022/10/11 09:11:34;;;;;;;12.77;6.78;;;18.90;75.40;;;;;;5073951;28;20591;-91
2022/10/11 09:14:20;;;;;;;10.90;6.43;;;19.00;75.90;;;;;;5074443;28;20374;-71
2022/10/11 09:17:16;;;;;;;15.77;6.28;;;19.00;75.60;;;;;;5074057;28;20032;-91
2022/10/11 09:20:00;;;;;;;15.35;6.50;;;19.10;74.90;;;;;;5073814;28;20043;-71
2022/10/11 09:22:26;;;;;;;11.43;6.90;;;19.10;74.70;;;;;;5074065;28;20535;-90
2022/10/11 09:25:27;;;;;;;12.13;7.28;;;19.20;75.30;;;;;;5073656;28;20049;-71
2022/10/11 09:27:59;;;;;;;9.48;6.72;;;19.20;75.90;;;;;;5047449;28;20033;-71
2022/10/11 09:30:25;;;;;;;13.02;6.40;;;19.30;75.50;;;;;;5073450;28;20032;-72
2022/10/11 09:32:58;;;;;;;8.70;6.60;;;19.40;75.20;;;;;;5073735;28;20439;-71
2022/10/11 09:35:24;;;;;;;11.57;7.25;;;19.40;75.20;;;;;;5073257;28;20079;-92
2022/10/11 09:38:04;;;;;;;11.10;6.57;;;19.50;75.00;;;;;;5073287;28;20395;-71
2022/10/11 09:40:30;;;;;;;14.88;7.50;;;19.60;75.00;;;;;;5073338;28;20083;-71
2022/10/11 09:42:56;;;;;;;8.57;6.70;;;19.70;74.80;;;;;;5073376;28;20425;-71
2022/10/11 09:45:21;;;;;;;10.85;6.47;;;19.80;73.90;;;;;;5072880;28;20036;-72
2022/10/11 09:47:49;;;;;;;12.25;6.63;;;19.80;73.70;;;;;;5073230;28;20029;-90
2022/10/11 09:50:19;;;;;;;12.90;6.80;;;19.90;73.90;;;;;;5073261;28;20033;-72
2022/10/11 09:52:54;;;;;;;9.38;6.88;;;20.00;73.60;;;;;;5072338;28;20033;-72
2022/10/11 09:55:37;;;;;;;8.10;6.65;;;20.10;73.10;;;;;;5072938;28;20077;-71
2022/10/11 09:58:05;;;;;;;14.45;6.55;;;20.20;72.20;;;;;;5072933;28;20029;-71
2022/10/11 10:00:32;;;;;;;10.00;6.55;;;20.20;72.00;;;;;;5072950;28;20033;-68
2022/10/11 10:03:03;;;;;;;18.60;7.18;;;20.30;71.90;;;;;;5072946;28;20515;-67
2022/10/11 10:05:36;;;;;;;11.35;6.80;;;20.40;72.50;;;;;;5072411;28;20041;-67
2022/10/11 10:08:08;;;;;;;12.13;6.72;;;20.50;70.70;;;;;;5072989;28;21055;-68
2022/10/11 10:10:38;;;;;;;11.27;6.45;;;20.60;71.20;;;;;;5072819;28;20033;-68
2022/10/11 10:13:17;;;;;;;15.80;7.57;;;20.70;70.50;;;;;;5073056;28;20043;-67
2022/10/11 10:15:47;;;;;;;8.18;6.57;;;20.70;70.30;;;;;;5072982;28;20059;-69
2022/10/11 10:18:19;;;;;;;11.00;6.38;;;20.80;70.30;;;;;;5072760;28;20039;-68
2022/10/11 10:20:52;;;;;;;13.07;7.07;;;20.90;69.10;;;;;;5072916;28;20455;-68
2022/10/11 10:23:24;;;;;;;12.30;6.40;;;20.90;69.40;;;;;;5072984;28;20035;-66
2022/10/11 10:25:51;;;;;;;12.80;6.65;;;21.00;69.50;;;;;;5072735;28;20047;-67
2022/10/11 10:28:19;;;;;;;19.00;7.45;;;21.10;68.80;;;;;;5072825;28;20090;-67
2022/10/11 10:30:55;;;;;;;10.98;6.32;;;21.10;68.80;;;;;;5072830;28;20127;-67
2022/10/11 10:33:25;;;;;;;15.20;6.85;;;21.20;69.00;;;;;;5072863;28;20041;-66
2022/10/11 10:36:13;;;;;;;12.75;7.05;;;21.30;68.60;;;;;;5072524;28;20070;-67
2022/10/11 10:38:47;;;;;;;15.20;6.60;;;21.40;68.80;;;;;;5072739;28;20039;-70
2022/10/11 10:41:16;;;;;;;14.23;6.50;;;21.50;67.80;;;;;;5072698;28;20032;-68
2022/10/11 10:43:50;;;;;;;13.45;7.13;;;21.60;68.50;;;;;;5072758;28;20029;-68
2022/10/11 10:46:22;;;;;;;10.23;6.20;;;21.80;68.70;;;;;;5072292;28;20080;-67
2022/10/11 10:49:18;;;;;;;20.25;7.50;;;21.90;67.20;;;;;;5072437;28;20040;-67
2022/10/11 10:51:53;;;;;;;10.43;6.60;;;22.00;68.10;;;;;;5072278;28;20028;-67
2022/10/11 10:54:52;;;;;;;12.15;6.78;;;22.00;68.00;;;;;;5072786;28;20032;-67
2022/10/11 10:57:27;;;;;;;18.83;6.00;;;22.00;68.00;;;;;;5072671;28;20111;-68
2022/10/11 11:00:02;;;;;;;8.93;6.18;;;21.90;67.10;;;;;;5072931;28;20041;-67
2022/10/11 11:02:55;;;;;;;19.27;6.78;;;21.80;67.30;;;;;;5072600;28;20052;-68
2022/10/11 11:05:37;;;;;;;9.23;6.65;;;21.80;67.60;;;;;;5075852;28;20415;-69
2022/10/11 11:08:20;;;;;;;8.80;6.40;;;21.70;66.90;;;;;;5076191;28;20032;-72
2022/10/11 11:10:53;;;;;;;9.95;6.07;;;21.70;67.30;;;;;;5076061;28;20034;-68
2022/10/11 11:13:39;;;;;;;14.07;5.80;;;21.80;67.90;;;;;;5076409;28;20024;-68
2022/10/11 11:16:04;;;;;;;18.75;5.53;;;21.90;66.10;;;;;;5075953;28;20102;-67
2022/10/11 11:18:52;;;;;;;9.38;5.28;;;22.00;65.00;;;;;;5076129;28;20029;-72
2022/10/11 11:21:41;;;;;;;10.05;5.60;;;22.00;65.40;;;;;;5075980;28;20040;-67
2022/10/11 11:24:21;;;;;;;11.10;6.32;;;22.00;66.00;;;;;;5075417;28;20040;-67
2022/10/11 11:26:51;;;;;;;10.00;6.25;;;22.00;66.80;;;;;;5075939;28;20101;-67
2022/10/11 11:29:16;;;;;;;10.60;6.05;;;22.00;66.40;;;;;;5075790;28;20037;-67
2022/10/11 11:32:09;;;;;;;14.38;5.95;;;21.90;66.30;;;;;;5075817;28;20108;-69
2022/10/11 11:34:53;;;;;;;10.07;5.90;;;22.00;66.90;;;;;;5075795;28;20032;-67
2022/10/11 11:37:33;;;;;;;15.88;6.22;;;22.00;66.20;;;;;;5075735;28;20036;-67
2022/10/11 11:40:40;;;;;;;15.63;5.68;;;22.10;65.00;;;;;;5075903;28;20078;-68
2022/10/11 11:43:26;;;;;;;12.13;5.30;;;22.20;65.80;;;;;;5075432;28;20033;-68
2022/10/11 11:46:12;;;;;;;9.55;5.03;;;22.40;66.00;;;;;;5075683;28;20051;-68
2022/10/11 11:48:38;;;;;;;11.40;5.13;;;22.50;63.30;;;;;;5075443;28;20047;-72
2022/10/11 11:51:07;;;;;;;11.63;5.35;;;22.50;63.30;;;;;;5075239;28;20063;-68
2022/10/11 11:53:46;;;;;;;15.10;5.57;;;22.60;66.20;;;;;;5075624;28;20064;-72
2022/10/11 11:56:39;;;;;;;11.93;4.30;;;22.60;66.40;;;;;;5073452;28;20055;-67
2022/10/11 11:59:10;;;;;;;12.07;4.45;;;22.60;64.30;;;;;;5074656;28;20035;-71
2022/10/11 12:01:48;;;;;;;8.73;4.20;;;22.60;63.30;;;;;;5056851;28;20159;-67
2022/10/11 12:04:25;;;;;;;11.32;4.15;;;22.70;62.90;;;;;;5074925;28;20351;-67
2022/10/11 12:07:03;;;;;;;14.43;4.57;;;22.70;62.50;;;;;;5059001;28;20056;-68
2022/10/11 12:09:29;;;;;;;7.63;4.60;;;22.70;62.90;;;;;;5055028;28;20029;-67
2022/10/11 12:12:03;;;;;;;13.40;4.85;;;22.70;61.90;;;;;;5054444;28;20045;-68
2022/10/11 12:14:32;;;;;;;11.10;4.35;;;22.70;61.10;;;;;;5054965;28;20028;-68
2022/10/11 12:17:07;;;;;;;11.80;3.92;;;22.70;60.60;;;;;;5054111;28;20481;-71
2022/10/11 12:19:33;;;;;;;14.30;4.38;;;22.70;60.50;;;;;;5054983;28;20029;-68
2022/10/11 12:22:26;;;;;;;9.20;4.05;;;22.60;60.40;;;;;;5054360;28;20040;-68
2022/10/11 12:24:58;;;;;;;16.75;5.18;;;22.60;60.40;;;;;;5053878;28;20045;-68
2022/10/11 12:27:38;;;;;;;8.70;3.40;;;22.60;60.70;;;;;;5054602;28;20159;-72
2022/10/11 12:30:25;;;;;;;11.45;4.28;;;22.60;60.30;;;;;;5054467;28;20052;-69
2022/10/11 12:32:51;;;;;;;11.38;3.85;;;22.50;58.90;;;;;;5022626;28;20448;-68
2022/10/11 12:35:29;;;;;;;12.13;3.92;;;22.50;59.30;;;;;;5053691;28;20061;-68
2022/10/11 12:38:17;;;;;;;12.32;4.30;;;22.50;59.70;;;;;;5054040;28;20478;-68
2022/10/11 12:40:46;;;;;;;13.52;4.10;;;22.50;59.60;;;;;;5054468;28;20432;-68
2022/10/11 12:43:14;;;;;;;10.02;4.68;;;22.50;59.80;;;;;;5053974;28;20489;-68
2022/10/11 12:45:46;;;;;;;10.80;4.10;;;22.60;60.40;;;;;;5053837;28;20493;-72
2022/10/11 12:48:18;;;;;;;;;;;22.60;60.30;;;;;;5054860;28;20025;-67
2022/10/11 12:51:29;;;;;;;11.30;3.92;;;22.70;59.80;;;;;;5053994;28;20315;-67